sensor_id;sensor_type;location;lat;lon;timestamp;pressure;altitude;pressure_sealevel;temperature;humidity
63111;BME280;49201;53.426;10.300;2023-04-02T00:09:21;101628.94;;;1.67;100.00
63111;BME280;49201;53.426;10.300;2023-04-02T00:11:46;101627.94;;;1.65;100.00
63111;BME280;49201;53.426;10.300;2023-04-02T00:14:32;101640.38;;;1.62;100.00
63111;BME280;49201;53.426;10.300;2023-04-02T00:17:00;101637.94;;;1.64;100.00
63111;BME280;49201;53.426;10.300;2023-04-02T00:19:34;101645.31;;;1.61;100.00
63111;BME280;49201;53.426;10.300;2023-04-02T00:22:02;101646.00;;;1.58;100.00
63111;BME280;49201;53.426;10.300;2023-04-02T00:24:31;101653.00;;;1.62;100.00
63111;BME280;49201;53.426;10.300;2023-04-02T00:26:57;101657.25;;;1.63;100.00
63111;BME280;49201;53.426;10.300;2023-04-02T00:29:23;101655.41;;;1.61;100.00
63111;BME280;49201;53.426;10.300;2023-04-02T00:31:52;101659.91;;;1.65;100.00
63111;BME280;49201;53.426;10.300;2023-04-02T00:36:48;101671.63;;;1.64;100.00
63111;BME280;49201;53.426;10.300;2023-04-02T00:39:21;101674.38;;;1.67;100.00
63111;BME280;49201;53.426;10.300;2023-04-02T00:41:48;101674.25;;;1.66;100.00
63111;BME280;49201;53.426;10.300;2023-04-02T00:44:23;101680.16;;;1.66;100.00
63111;BME280;49201;53.426;10.300;2023-04-02T00:46:49;101683.56;;;1.67;100.00
63111;BME280;49201;53.426;10.300;2023-04-02T00:49:20;101681.94;;;1.67;100.00
63111;BME280;49201;53.426;10.300;2023-04-02T00:51:59;101679.53;;;1.69;100.00
63111;BME280;49201;53.426;10.300;2023-04-02T00:54:30;101692.13;;;1.69;100.00
63111;BME280;49201;53.426;10.300;2023-04-02T00:56:57;101690.47;;;1.69;100.00
63111;BME280;49201;53.426;10.300;2023-04-02T00:59:42;101692.94;;;1.81;100.00
63111;BME280;49201;53.426;10.300;2023-04-02T01:04:39;101704.38;;;1.76;100.00
63111;BME280;49201;53.426;10.300;2023-04-02T01:07:08;101700.13;;;1.75;100.00
63111;BME280;49201;53.426;10.300;2023-04-02T01:12:32;101705.16;;;1.75;100.00
63111;BME280;49201;53.426;10.300;2023-04-02T01:15:11;101710.09;;;1.73;100.00
63111;BME280;49201;53.426;10.300;2023-04-02T01:20:25;101716.72;;;1.71;100.00
63111;BME280;49201;53.426;10.300;2023-04-02T01:23:10;101730.28;;;1.73;100.00
63111;BME280;49201;53.426;10.300;2023-04-02T01:25:46;101733.03;;;1.76;100.00
63111;BME280;49201;53.426;10.300;2023-04-02T01:28:32;101739.31;;;1.70;100.00
63111;BME280;49201;53.426;10.300;2023-04-02T01:31:00;101746.88;;;1.70;100.00
63111;BME280;49201;53.426;10.300;2023-04-02T01:33:29;101747.44;;;1.66;100.00
63111;BME280;49201;53.426;10.300;2023-04-02T01:36:14;101754.13;;;1.65;100.00
63111;BME280;49201;53.426;10.300;2023-04-02T01:38:50;101757.41;;;1.64;100.00
63111;BME280;49201;53.426;10.300;2023-04-02T01:41:30;101758.66;;;1.58;100.00
63111;BME280;49201;53.426;10.300;2023-04-02T01:44:11;101763.69;;;1.58;100.00
63111;BME280;49201;53.426;10.300;2023-04-02T01:46:40;101770.28;;;1.56;100.00
63111;BME280;49201;53.426;10.300;2023-04-02T01:49:20;101774.22;;;1.52;100.00
63111;BME280;49201;53.426;10.300;2023-04-02T01:51:51;101775.88;;;1.52;100.00
63111;BME280;49201;53.426;10.300;2023-04-02T01:54:20;101782.13;;;1.57;100.00
63111;BME280;49201;53.426;10.300;2023-04-02T01:56:46;101781.25;;;1.56;100.00
63111;BME280;49201;53.426;10.300;2023-04-02T01:59:18;101787.63;;;1.51;100.00
63111;BME280;49201;53.426;10.300;2023-04-02T02:01:52;101790.03;;;1.50;100.00
63111;BME280;49201;53.426;10.300;2023-04-02T02:04:21;101791.69;;;1.49;100.00
63111;BME280;49201;53.426;10.300;2023-04-02T02:06:47;101795.72;;;1.47;100.00
63111;BME280;49201;53.426;10.300;2023-04-02T02:09:19;101797.28;;;1.45;100.00
63111;BME280;49201;53.426;10.300;2023-04-02T02:11:48;101795.19;;;1.40;100.00
63111;BME280;49201;53.426;10.300;2023-04-02T02:14:18;101804.75;;;1.44;100.00
63111;BME280;49201;53.426;10.300;2023-04-02T02:16:45;101812.41;;;1.45;100.00
63111;BME280;49201;53.426;10.300;2023-04-02T02:21:47;101817.91;;;1.40;100.00
63111;BME280;49201;53.426;10.300;2023-04-02T02:24:22;101819.75;;;1.42;100.00
63111;BME280;49201;53.426;10.300;2023-04-02T02:27:22;101817.69;;;1.37;100.00
63111;BME280;49201;53.426;10.300;2023-04-02T02:29:39;101825.47;;;1.40;100.00
63111;BME280;49201;53.426;10.300;2023-04-02T02:32:08;101829.31;;;1.35;100.00
63111;BME280;49201;53.426;10.300;2023-04-02T02:34:39;101829.44;;;1.36;100.00
63111;BME280;49201;53.426;10.300;2023-04-02T02:37:17;101832.50;;;1.44;100.00
63111;BME280;49201;53.426;10.300;2023-04-02T02:39:50;101849.06;;;1.40;100.00
63111;BME280;49201;53.426;10.300;2023-04-02T02:44:59;101851.91;;;1.33;100.00
63111;BME280;49201;53.426;10.300;2023-04-02T02:47:28;101857.47;;;1.29;100.00
63111;BME280;49201;53.426;10.300;2023-04-02T02:50:12;101857.72;;;1.32;100.00
63111;BME280;49201;53.426;10.300;2023-04-02T02:52:46;101861.56;;;1.39;100.00
63111;BME280;49201;53.426;10.300;2023-04-02T02:55:18;101871.41;;;1.36;100.00
63111;BME280;49201;53.426;10.300;2023-04-02T02:58:03;101878.31;;;1.38;100.00
63111;BME280;49201;53.426;10.300;2023-04-02T03:00:38;101877.59;;;1.39;100.00
63111;BME280;49201;53.426;10.300;2023-04-02T03:03:07;101882.94;;;1.44;100.00
63111;BME280;49201;53.426;10.300;2023-04-02T03:05:36;101887.22;;;1.45;100.00
63111;BME280;49201;53.426;10.300;2023-04-02T03:08:18;101890.50;;;1.44;100.00
63111;BME280;49201;53.426;10.300;2023-04-02T03:10:53;101895.13;;;1.49;100.00
63111;BME280;49201;53.426;10.300;2023-04-02T03:13:31;101896.66;;;1.47;100.00
63111;BME280;49201;53.426;10.300;2023-04-02T03:21:26;101914.97;;;1.56;100.00
63111;BME280;49201;53.426;10.300;2023-04-02T03:23:56;101913.34;;;1.57;100.00
63111;BME280;49201;53.426;10.300;2023-04-02T03:26:33;101919.34;;;1.59;100.00
63111;BME280;49201;53.426;10.300;2023-04-02T03:31:46;101922.00;;;1.60;100.00
63111;BME280;49201;53.426;10.300;2023-04-02T03:34:19;101940.31;;;1.58;100.00
63111;BME280;49201;53.426;10.300;2023-04-02T03:37:01;101944.72;;;1.60;100.00
63111;BME280;49201;53.426;10.300;2023-04-02T03:39:35;101952.50;;;1.63;100.00
63111;BME280;49201;53.426;10.300;2023-04-02T03:42:08;101950.09;;;1.65;100.00
63111;BME280;49201;53.426;10.300;2023-04-02T03:44:45;101961.28;;;1.68;100.00
63111;BME280;49201;53.426;10.300;2023-04-02T03:49:55;101965.31;;;1.66;100.00
63111;BME280;49201;53.426;10.300;2023-04-02T03:52:27;101967.78;;;1.65;100.00
63111;BME280;49201;53.426;10.300;2023-04-02T03:54:58;101964.34;;;1.64;100.00
63111;BME280;49201;53.426;10.300;2023-04-02T03:57:36;101978.59;;;1.64;100.00
63111;BME280;49201;53.426;10.300;2023-04-02T04:00:13;101979.63;;;1.66;100.00
63111;BME280;49201;53.426;10.300;2023-04-02T04:02:48;101986.53;;;1.68;100.00
63111;BME280;49201;53.426;10.300;2023-04-02T04:05:29;101990.16;;;1.72;100.00
63111;BME280;49201;53.426;10.300;2023-04-02T04:08:05;101992.13;;;1.76;100.00
63111;BME280;49201;53.426;10.300;2023-04-02T04:10:33;101999.69;;;1.76;100.00
63111;BME280;49201;53.426;10.300;2023-04-02T04:13:08;101996.63;;;1.80;100.00
63111;BME280;49201;53.426;10.300;2023-04-02T04:15:41;102010.69;;;1.76;100.00
63111;BME280;49201;53.426;10.300;2023-04-02T04:21:19;102018.69;;;1.82;100.00
63111;BME280;49201;53.426;10.300;2023-04-02T04:24:04;102031.44;;;1.84;100.00
63111;BME280;49201;53.426;10.300;2023-04-02T04:26:42;102031.31;;;1.82;100.00
63111;BME280;49201;53.426;10.300;2023-04-02T04:32:26;102044.38;;;1.88;100.00
63111;BME280;49201;53.426;10.300;2023-04-02T04:35:35;102041.84;;;1.88;100.00
63111;BME280;49201;53.426;10.300;2023-04-02T04:40:36;102045.69;;;1.95;100.00
63111;BME280;49201;53.426;10.300;2023-04-02T04:43:12;102053.16;;;1.93;100.00
63111;BME280;49201;53.426;10.300;2023-04-02T04:45:44;102058.44;;;1.96;100.00
63111;BME280;49201;53.426;10.300;2023-04-02T04:48:53;102068.66;;;1.98;100.00
63111;BME280;49201;53.426;10.300;2023-04-02T04:51:56;102076.91;;;1.95;100.00
63111;BME280;49201;53.426;10.300;2023-04-02T04:54:26;102078.88;;;1.99;100.00
63111;BME280;49201;53.426;10.300;2023-04-02T04:56:58;102081.28;;;1.98;100.00
63111;BME280;49201;53.426;10.300;2023-04-02T04:59:32;102081.59;;;2.02;100.00
63111;BME280;49201;53.426;10.300;2023-04-02T05:02:12;102089.84;;;2.00;100.00
63111;BME280;49201;53.426;10.300;2023-04-02T05:04:45;102093.56;;;2.05;100.00
63111;BME280;49201;53.426;10.300;2023-04-02T05:07:20;102097.31;;;2.10;100.00
63111;BME280;49201;53.426;10.300;2023-04-02T05:10:17;102095.13;;;2.14;100.00
63111;BME280;49201;53.426;10.300;2023-04-02T05:12:53;102095.25;;;2.16;100.00
63111;BME280;49201;53.426;10.300;2023-04-02T05:15:31;102100.50;;;2.19;100.00
63111;BME280;49201;53.426;10.300;2023-04-02T05:20:57;102113.69;;;2.26;100.00
63111;BME280;49201;53.426;10.300;2023-04-02T05:23:28;102105.25;;;2.26;100.00
63111;BME280;49201;53.426;10.300;2023-04-02T05:28:38;102108.97;;;2.31;100.00
63111;BME280;49201;53.426;10.300;2023-04-02T05:31:17;102089.97;;;2.36;100.00
63111;BME280;49201;53.426;10.300;2023-04-02T05:33:46;102093.47;;;2.38;100.00
63111;BME280;49201;53.426;10.300;2023-04-02T05:36:19;102111.28;;;2.39;100.00
63111;BME280;49201;53.426;10.300;2023-04-02T05:38:50;102113.50;;;2.46;100.00
63111;BME280;49201;53.426;10.300;2023-04-02T05:44:07;102110.84;;;2.56;100.00
63111;BME280;49201;53.426;10.300;2023-04-02T05:46:50;102104.69;;;2.64;100.00
63111;BME280;49201;53.426;10.300;2023-04-02T05:49:28;102099.75;;;2.66;100.00
63111;BME280;49201;53.426;10.300;2023-04-02T05:51:59;102091.91;;;2.74;100.00
63111;BME280;49201;53.426;10.300;2023-04-02T05:54:38;102092.97;;;2.89;100.00
63111;BME280;49201;53.426;10.300;2023-04-02T05:57:10;102089.47;;;2.99;100.00
63111;BME280;49201;53.426;10.300;2023-04-02T05:59:51;102079.53;;;3.02;100.00
63111;BME280;49201;53.426;10.300;2023-04-02T06:02:29;102091.06;;;3.10;100.00
63111;BME280;49201;53.426;10.300;2023-04-02T06:07:39;102060.38;;;3.54;100.00
63111;BME280;49201;53.426;10.300;2023-04-02T06:10:13;102051.97;;;3.80;100.00
63111;BME280;49201;53.426;10.300;2023-04-02T06:12:59;102029.50;;;3.97;100.00
63111;BME280;49201;53.426;10.300;2023-04-02T06:15:33;102053.19;;;4.11;100.00
63111;BME280;49201;53.426;10.300;2023-04-02T06:18:12;102011.16;;;4.01;100.00
63111;BME280;49201;53.426;10.300;2023-04-02T06:20:40;102008.72;;;4.03;100.00
63111;BME280;49201;53.426;10.300;2023-04-02T06:23:16;101973.47;;;4.19;100.00
63111;BME280;49201;53.426;10.300;2023-04-02T06:25:48;102003.09;;;4.33;100.00
63111;BME280;49201;53.426;10.300;2023-04-02T06:28:19;101991.94;;;4.31;100.00
63111;BME280;49201;53.426;10.300;2023-04-02T06:30:52;102000.22;;;4.41;100.00
63111;BME280;49201;53.426;10.300;2023-04-02T06:33:20;101996.69;;;4.52;100.00
63111;BME280;49201;53.426;10.300;2023-04-02T06:35:48;101979.00;;;4.67;100.00
63111;BME280;49201;53.426;10.300;2023-04-02T06:38:26;101939.41;;;4.69;100.00
63111;BME280;49201;53.426;10.300;2023-04-02T06:41:04;101905.31;;;4.78;100.00
63111;BME280;49201;53.426;10.300;2023-04-02T06:46:42;101927.78;;;5.14;100.00
63111;BME280;49201;53.426;10.300;2023-04-02T06:49:36;101938.00;;;5.30;100.00
63111;BME280;49201;53.426;10.300;2023-04-02T06:52:12;101908.34;;;5.44;100.00
63111;BME280;49201;53.426;10.300;2023-04-02T06:54:41;101879.44;;;5.42;100.00
63111;BME280;49201;53.426;10.300;2023-04-02T06:57:09;101857.34;;;5.55;100.00
63111;BME280;49201;53.426;10.300;2023-04-02T06:59:39;101865.72;;;5.69;100.00
63111;BME280;49201;53.426;10.300;2023-04-02T07:02:28;101845.81;;;5.76;100.00
63111;BME280;49201;53.426;10.300;2023-04-02T07:05:01;101827.13;;;5.90;100.00
63111;BME280;49201;53.426;10.300;2023-04-02T07:07:28;101848.63;;;6.11;100.00
63111;BME280;49201;53.426;10.300;2023-04-02T07:09:54;101868.69;;;6.37;100.00
63111;BME280;49201;53.426;10.300;2023-04-02T07:12:23;101854.97;;;6.03;100.00
63111;BME280;49201;53.426;10.300;2023-04-02T07:14:49;101804.69;;;6.14;100.00
63111;BME280;49201;53.426;10.300;2023-04-02T07:17:16;101781.81;;;6.14;100.00
63111;BME280;49201;53.426;10.300;2023-04-02T07:19:43;101796.88;;;6.43;100.00
63111;BME280;49201;53.426;10.300;2023-04-02T07:22:10;101793.31;;;6.39;100.00
63111;BME280;49201;53.426;10.300;2023-04-02T07:24:39;101758.72;;;6.59;100.00
63111;BME280;49201;53.426;10.300;2023-04-02T07:27:04;101773.56;;;6.67;100.00
63111;BME280;49201;53.426;10.300;2023-04-02T07:29:30;101755.31;;;6.76;100.00
63111;BME280;49201;53.426;10.300;2023-04-02T07:31:55;101710.75;;;6.84;100.00
63111;BME280;49201;53.426;10.300;2023-04-02T07:34:20;101709.81;;;6.99;100.00
63111;BME280;49201;53.426;10.300;2023-04-02T07:36:46;101695.25;;;7.14;100.00
63111;BME280;49201;53.426;10.300;2023-04-02T07:39:13;101703.84;;;7.16;100.00
63111;BME280;49201;53.426;10.300;2023-04-02T07:41:53;101683.69;;;7.57;100.00
63111;BME280;49201;53.426;10.300;2023-04-02T07:44:19;101684.44;;;7.74;100.00
63111;BME280;49201;53.426;10.300;2023-04-02T07:46:44;101661.66;;;7.97;100.00
63111;BME280;49201;53.426;10.300;2023-04-02T07:49:10;101693.00;;;7.95;100.00
63111;BME280;49201;53.426;10.300;2023-04-02T07:51:35;101777.94;;;8.51;100.00
63111;BME280;49201;53.426;10.300;2023-04-02T07:54:02;101673.81;;;8.42;100.00
63111;BME280;49201;53.426;10.300;2023-04-02T07:56:27;101620.28;;;8.44;100.00
63111;BME280;49201;53.426;10.300;2023-04-02T07:58:53;101632.53;;;8.73;100.00
63111;BME280;49201;53.426;10.300;2023-04-02T08:01:24;101596.03;;;8.97;100.00
63111;BME280;49201;53.426;10.300;2023-04-02T08:03:51;101649.41;;;9.12;100.00
63111;BME280;49201;53.426;10.300;2023-04-02T08:06:17;101632.63;;;9.18;100.00
63111;BME280;49201;53.426;10.300;2023-04-02T08:08:42;101602.38;;;9.07;99.28
63111;BME280;49201;53.426;10.300;2023-04-02T08:11:09;101595.34;;;9.25;100.00
63111;BME280;49201;53.426;10.300;2023-04-02T08:13:35;101620.56;;;9.38;100.00
63111;BME280;49201;53.426;10.300;2023-04-02T08:16:02;101578.69;;;9.34;98.83
63111;BME280;49201;53.426;10.300;2023-04-02T08:18:29;101554.75;;;9.56;93.52
63111;BME280;49201;53.426;10.300;2023-04-02T08:20:55;101542.91;;;9.83;92.99
63111;BME280;49201;53.426;10.300;2023-04-02T08:23:22;101477.28;;;9.83;86.62
63111;BME280;49201;53.426;10.300;2023-04-02T08:25:48;101541.97;;;9.56;91.96
63111;BME280;49201;53.426;10.300;2023-04-02T08:28:13;101532.44;;;9.52;91.51
63111;BME280;49201;53.426;10.300;2023-04-02T08:30:39;101570.38;;;8.94;93.31
63111;BME280;49201;53.426;10.300;2023-04-02T08:33:05;101606.66;;;8.86;95.36
63111;BME280;49201;53.426;10.300;2023-04-02T08:35:31;101628.69;;;8.62;97.93
63111;BME280;49201;53.426;10.300;2023-04-02T08:37:57;101637.59;;;8.30;98.03
63111;BME280;49201;53.426;10.300;2023-04-02T08:40:33;101613.47;;;8.43;94.59
63111;BME280;49201;53.426;10.300;2023-04-02T08:48:21;101658.56;;;8.44;98.11
63111;BME280;49201;53.426;10.300;2023-04-02T08:50:48;101636.28;;;8.40;95.36
63111;BME280;49201;53.426;10.300;2023-04-02T08:53:18;101624.28;;;9.02;94.16
63111;BME280;49201;53.426;10.300;2023-04-02T08:55:55;101583.31;;;9.93;88.92
63111;BME280;49201;53.426;10.300;2023-04-02T08:58:38;101517.03;;;10.00;84.73
63111;BME280;49201;53.426;10.300;2023-04-02T09:01:39;101486.41;;;10.28;80.60
63111;BME280;49201;53.426;10.300;2023-04-02T09:04:14;101457.56;;;10.62;76.65
63111;BME280;49201;53.426;10.300;2023-04-02T09:06:41;101521.97;;;10.74;86.99
63111;BME280;49201;53.426;10.300;2023-04-02T09:09:10;101490.56;;;10.81;81.23
63111;BME280;49201;53.426;10.300;2023-04-02T09:11:52;101507.38;;;10.71;83.08
63111;BME280;49201;53.426;10.300;2023-04-02T09:14:34;101532.69;;;10.08;84.53
63111;BME280;49201;53.426;10.300;2023-04-02T09:17:13;101592.94;;;10.00;90.47
63111;BME280;49201;53.426;10.300;2023-04-02T09:19:42;101585.31;;;9.53;86.44
63111;BME280;49201;53.426;10.300;2023-04-02T09:22:20;101631.09;;;10.17;93.15
63111;BME280;49201;53.426;10.300;2023-04-02T09:24:53;101557.63;;;11.25;87.37
63111;BME280;49201;53.426;10.300;2023-04-02T09:27:22;101489.38;;;11.60;76.56
63111;BME280;49201;53.426;10.300;2023-04-02T09:29:52;101385.47;;;11.77;63.55
63111;BME280;49201;53.426;10.300;2023-04-02T09:32:46;101319.00;;;11.87;61.21
63111;BME280;49201;53.426;10.300;2023-04-02T09:35:37;101259.16;;;11.51;55.97
63111;BME280;49201;53.426;10.300;2023-04-02T09:38:25;101201.25;;;11.59;54.62
63111;BME280;49201;53.426;10.300;2023-04-02T09:41:17;101313.50;;;12.11;64.29
63111;BME280;49201;53.426;10.300;2023-04-02T09:43:43;101333.16;;;12.52;61.75
63111;BME280;49201;53.426;10.300;2023-04-02T09:48:40;101234.63;;;12.47;54.71
63111;BME280;49201;53.426;10.300;2023-04-02T09:51:20;101134.22;;;11.86;50.94
63111;BME280;49201;53.426;10.300;2023-04-02T09:54:05;101237.16;;;12.44;56.43
63111;BME280;49201;53.426;10.300;2023-04-02T09:56:37;101152.16;;;12.32;50.02
63111;BME280;49201;53.426;10.300;2023-04-02T10:01:33;101203.59;;;12.36;49.90
63111;BME280;49201;53.426;10.300;2023-04-02T10:04:01;101266.31;;;12.47;48.79
63111;BME280;49201;53.426;10.300;2023-04-02T10:06:29;101313.81;;;13.15;50.31
63111;BME280;49201;53.426;10.300;2023-04-02T10:08:54;101324.25;;;13.81;50.43
63111;BME280;49201;53.426;10.300;2023-04-02T10:11:29;101350.88;;;14.42;47.22
63111;BME280;49201;53.426;10.300;2023-04-02T10:14:04;102034.41;;;17.99;38.73
63111;BME280;49201;53.426;10.300;2023-04-02T10:16:35;102240.59;;;19.58;34.09
63111;BME280;49201;53.426;10.300;2023-04-02T10:19:56;102263.41;;;21.86;32.49
63111;BME280;49201;53.426;10.300;2023-04-02T10:22:11;102289.22;;;22.52;29.69
63111;BME280;49201;53.426;10.300;2023-04-02T10:24:38;102301.41;;;22.38;30.88
63111;BME280;49201;53.426;10.300;2023-04-02T10:32:34;102382.25;;;19.10;35.44
63111;BME280;49201;53.426;10.300;2023-04-02T10:40:27;102446.03;;;18.20;40.67
63111;BME280;49201;53.426;10.300;2023-04-02T10:43:09;102438.31;;;16.74;40.13
63111;BME280;49201;53.426;10.300;2023-04-02T10:48:44;102456.31;;;16.31;41.90
63111;BME280;49201;53.426;10.300;2023-04-02T10:51:24;102469.72;;;15.44;41.99
63111;BME280;49201;53.426;10.300;2023-04-02T10:54:12;102484.72;;;15.93;42.05
63111;BME280;49201;53.426;10.300;2023-04-02T10:56:42;102472.00;;;15.34;42.13
63111;BME280;49201;53.426;10.300;2023-04-02T11:01:43;102483.13;;;15.02;42.35
63111;BME280;49201;53.426;10.300;2023-04-02T11:04:18;102474.00;;;15.44;42.48
63111;BME280;49201;53.426;10.300;2023-04-02T11:06:48;102491.13;;;16.10;41.83
63111;BME280;49201;53.426;10.300;2023-04-02T11:09:23;102467.22;;;15.81;40.30
63111;BME280;49201;53.426;10.300;2023-04-02T11:11:53;102448.88;;;15.71;39.46
63111;BME280;49201;53.426;10.300;2023-04-02T11:14:25;102459.16;;;16.05;39.63
63111;BME280;49201;53.426;10.300;2023-04-02T11:16:52;102463.50;;;16.07;40.01
63111;BME280;49201;53.426;10.300;2023-04-02T11:19:25;102463.16;;;16.29;40.06
63111;BME280;49201;53.426;10.300;2023-04-02T11:37:42;102514.44;;;15.76;43.58
63111;BME280;49201;53.426;10.300;2023-04-02T11:42:44;102557.97;;;14.46;46.43
63111;BME280;49201;53.426;10.300;2023-04-02T11:50:40;102534.41;;;15.50;45.75
63111;BME280;49201;53.426;10.300;2023-04-02T11:55:35;102540.34;;;16.13;47.01
63111;BME280;49201;53.426;10.300;2023-04-02T11:58:21;102547.69;;;16.32;46.56
63111;BME280;49201;53.426;10.300;2023-04-02T12:11:40;102596.56;;;14.71;49.94
63111;BME280;49201;53.426;10.300;2023-04-02T12:14:29;102575.59;;;14.87;49.40
63111;BME280;49201;53.426;10.300;2023-04-02T12:16:56;102565.13;;;14.82;46.78
63111;BME280;49201;53.426;10.300;2023-04-02T12:19:22;102583.13;;;14.01;47.54
63111;BME280;49201;53.426;10.300;2023-04-02T12:21:50;102604.16;;;13.41;48.49
63111;BME280;49201;53.426;10.300;2023-04-02T12:24:20;102615.94;;;13.35;50.89
63111;BME280;49201;53.426;10.300;2023-04-02T12:26:46;102625.13;;;12.63;51.79
63111;BME280;49201;53.426;10.300;2023-04-02T12:29:26;102632.28;;;13.84;54.59
63111;BME280;49201;53.426;10.300;2023-04-02T12:31:54;102608.19;;;14.07;50.95
63111;BME280;49201;53.426;10.300;2023-04-02T12:34:21;102602.97;;;14.83;51.60
63111;BME280;49201;53.426;10.300;2023-04-02T12:36:56;102588.94;;;13.96;48.80
63111;BME280;49201;53.426;10.300;2023-04-02T12:39:24;102622.00;;;13.37;53.44
63111;BME280;49201;53.426;10.300;2023-04-02T12:41:50;102632.69;;;13.02;53.12
63111;BME280;49201;53.426;10.300;2023-04-02T12:44:18;102641.16;;;13.92;58.44
63111;BME280;49201;53.426;10.300;2023-04-02T12:46:46;102618.34;;;13.54;53.02
63111;BME280;49201;53.426;10.300;2023-04-02T12:49:38;102623.00;;;12.96;55.42
63111;BME280;49201;53.426;10.300;2023-04-02T12:52:15;102638.25;;;12.49;57.36
63111;BME280;49201;53.426;10.300;2023-04-02T12:55:02;102657.41;;;12.36;63.27
63111;BME280;49201;53.426;10.300;2023-04-02T12:57:32;102649.59;;;12.33;61.04
63111;BME280;49201;53.426;10.300;2023-04-02T13:02:41;102658.91;;;12.31;64.64
63111;BME280;49201;53.426;10.300;2023-04-02T13:05:08;102673.41;;;11.53;65.90
63111;BME280;49201;53.426;10.300;2023-04-02T13:07:33;102688.66;;;11.31;72.74
63111;BME280;49201;53.426;10.300;2023-04-02T13:10:25;102674.44;;;11.38;66.26
63111;BME280;49201;53.426;10.300;2023-04-02T13:12:58;102675.22;;;12.32;68.07
63111;BME280;49201;53.426;10.300;2023-04-02T13:15:32;102638.34;;;12.52;61.58
63111;BME280;49201;53.426;10.300;2023-04-02T13:18:18;102652.81;;;12.09;66.14
63111;BME280;49201;53.426;10.300;2023-04-02T13:20:56;102669.22;;;11.36;68.63
63111;BME280;49201;53.426;10.300;2023-04-02T13:25:55;102710.97;;;10.62;82.19
63111;BME280;49201;53.426;10.300;2023-04-02T13:28:21;102715.34;;;10.82;84.72
63111;BME280;49201;53.426;10.300;2023-04-02T13:30:47;102699.88;;;11.52;79.10
63111;BME280;49201;53.426;10.300;2023-04-02T13:33:13;102673.19;;;11.85;74.77
63111;BME280;49201;53.426;10.300;2023-04-02T13:35:40;102662.81;;;12.63;74.17
63111;BME280;49201;53.426;10.300;2023-04-02T13:38:06;102664.44;;;12.40;71.65
63111;BME280;49201;53.426;10.300;2023-04-02T13:40:32;102669.69;;;12.23;77.71
63111;BME280;49201;53.426;10.300;2023-04-02T13:42:58;102692.72;;;11.82;79.21
63111;BME280;49201;53.426;10.300;2023-04-02T13:45:29;102706.44;;;11.82;80.09
63111;BME280;49201;53.426;10.300;2023-04-02T13:47:56;102705.53;;;11.63;77.44
63111;BME280;49201;53.426;10.300;2023-04-02T13:50:26;102709.09;;;11.30;78.49
63111;BME280;49201;53.426;10.300;2023-04-02T13:52:52;102697.50;;;11.93;77.26
63111;BME280;49201;53.426;10.300;2023-04-02T13:55:21;102686.81;;;12.63;75.06
63111;BME280;49201;53.426;10.300;2023-04-02T13:57:48;102676.22;;;12.35;73.96
63111;BME280;49201;53.426;10.300;2023-04-02T14:00:15;102710.22;;;11.00;81.10
63111;BME280;49201;53.426;10.300;2023-04-02T14:02:44;102737.59;;;10.66;83.35
63111;BME280;49201;53.426;10.300;2023-04-02T14:11:03;102738.66;;;11.58;87.05
63111;BME280;49201;53.426;10.300;2023-04-02T14:14:03;102719.25;;;12.20;81.84
63111;BME280;49201;53.426;10.300;2023-04-02T14:22:10;102725.84;;;11.04;79.65
63111;BME280;49201;53.426;10.300;2023-04-02T14:24:43;102751.19;;;10.98;85.35
63111;BME280;49201;53.426;10.300;2023-04-02T14:27:23;102755.63;;;11.02;86.71
63111;BME280;49201;53.426;10.300;2023-04-02T14:33:14;102715.00;;;11.83;78.82
63111;BME280;49201;53.426;10.300;2023-04-02T14:35:47;102738.56;;;11.38;83.49
63111;BME280;49201;53.426;10.300;2023-04-02T14:38:21;102772.19;;;10.91;88.42
63111;BME280;49201;53.426;10.300;2023-04-02T14:40:55;102783.91;;;10.86;89.59
63111;BME280;49201;53.426;10.300;2023-04-02T14:43:44;102795.78;;;11.19;91.16
63111;BME280;49201;53.426;10.300;2023-04-02T14:46:11;102793.88;;;11.50;90.76
63111;BME280;49201;53.426;10.300;2023-04-02T14:51:37;102774.19;;;12.24;91.07
63111;BME280;49201;53.426;10.300;2023-04-02T14:54:21;102770.34;;;12.33;86.43
63111;BME280;49201;53.426;10.300;2023-04-02T14:57:05;102766.31;;;11.46;82.56
63111;BME280;49201;53.426;10.300;2023-04-02T14:59:56;102792.78;;;10.77;89.99
63111;BME280;49201;53.426;10.300;2023-04-02T15:07:44;102822.03;;;10.80;92.91
63111;BME280;49201;53.426;10.300;2023-04-02T15:12:47;102818.84;;;10.84;94.20
63111;BME280;49201;53.426;10.300;2023-04-02T15:17:44;102806.56;;;11.12;89.04
63111;BME280;49201;53.426;10.300;2023-04-02T15:20:17;102799.38;;;11.23;90.18
63111;BME280;49201;53.426;10.300;2023-04-02T15:23:00;102795.25;;;10.58;90.74
63111;BME280;49201;53.426;10.300;2023-04-02T15:25:47;102816.19;;;10.83;90.42
63111;BME280;49201;53.426;10.300;2023-04-02T15:28:30;102815.75;;;10.91;92.05
63111;BME280;49201;53.426;10.300;2023-04-02T15:31:02;102829.25;;;10.71;91.56
63111;BME280;49201;53.426;10.300;2023-04-02T15:33:39;102831.06;;;10.90;95.09
63111;BME280;49201;53.426;10.300;2023-04-02T15:38:51;102839.63;;;10.25;96.32
63111;BME280;49201;53.426;10.300;2023-04-02T15:41:26;102848.31;;;10.76;94.69
63111;BME280;49201;53.426;10.300;2023-04-02T15:44:05;102845.72;;;10.27;95.71
63111;BME280;49201;53.426;10.300;2023-04-02T15:52:07;102885.19;;;9.85;100.00
63111;BME280;49201;53.426;10.300;2023-04-02T16:11:14;102913.63;;;8.88;100.00